sensor_id;sensor_type;location;lat;lon;timestamp;temperature;humidity
17992;DHT22;9121;50.926;5.340;2024-02-23T00:00:14;6.80;99.90
17992;DHT22;9121;50.926;5.340;2024-02-23T00:02:43;6.80;99.90
17992;DHT22;9121;50.926;5.340;2024-02-23T00:05:10;6.80;99.90
17992;DHT22;9121;50.926;5.340;2024-02-23T00:07:39;6.70;99.90
17992;DHT22;9121;50.926;5.340;2024-02-23T00:10:07;6.60;99.90
17992;DHT22;9121;50.926;5.340;2024-02-23T00:12:34;6.60;99.90
17992;DHT22;9121;50.926;5.340;2024-02-23T00:15:00;6.60;99.90
17992;DHT22;9121;50.926;5.340;2024-02-23T00:17:27;6.60;99.90
17992;DHT22;9121;50.926;5.340;2024-02-23T00:19:54;6.60;99.90
17992;DHT22;9121;50.926;5.340;2024-02-23T00:22:21;6.50;99.90
17992;DHT22;9121;50.926;5.340;2024-02-23T00:24:52;6.50;99.90
17992;DHT22;9121;50.926;5.340;2024-02-23T00:27:18;6.50;99.90
17992;DHT22;9121;50.926;5.340;2024-02-23T00:29:45;6.50;99.90
17992;DHT22;9121;50.926;5.340;2024-02-23T00:32:12;6.50;99.90
17992;DHT22;9121;50.926;5.340;2024-02-23T00:34:39;6.50;99.90
17992;DHT22;9121;50.926;5.340;2024-02-23T00:37:06;6.50;99.90
17992;DHT22;9121;50.926;5.340;2024-02-23T00:39:34;6.40;99.90
17992;DHT22;9121;50.926;5.340;2024-02-23T00:42:03;6.40;99.90
17992;DHT22;9121;50.926;5.340;2024-02-23T00:44:30;6.40;99.90
17992;DHT22;9121;50.926;5.340;2024-02-23T00:46:57;6.30;99.90
17992;DHT22;9121;50.926;5.340;2024-02-23T00:49:27;6.30;99.90
17992;DHT22;9121;50.926;5.340;2024-02-23T00:51:54;6.30;99.90
17992;DHT22;9121;50.926;5.340;2024-02-23T00:54:21;6.30;99.90
17992;DHT22;9121;50.926;5.340;2024-02-23T00:56:47;6.30;99.90
17992;DHT22;9121;50.926;5.340;2024-02-23T00:59:16;6.20;99.90
17992;DHT22;9121;50.926;5.340;2024-02-23T01:01:43;6.20;99.90
17992;DHT22;9121;50.926;5.340;2024-02-23T01:04:10;6.20;99.90
17992;DHT22;9121;50.926;5.340;2024-02-23T01:06:37;6.20;99.90
17992;DHT22;9121;50.926;5.340;2024-02-23T01:09:04;6.20;99.90
17992;DHT22;9121;50.926;5.340;2024-02-23T01:11:31;6.20;99.90
17992;DHT22;9121;50.926;5.340;2024-02-23T01:13:58;6.30;99.90
17992;DHT22;9121;50.926;5.340;2024-02-23T01:16:26;6.20;99.90
17992;DHT22;9121;50.926;5.340;2024-02-23T01:18:53;6.20;99.90
17992;DHT22;9121;50.926;5.340;2024-02-23T01:21:20;6.20;99.90
17992;DHT22;9121;50.926;5.340;2024-02-23T01:23:47;6.20;99.90
17992;DHT22;9121;50.926;5.340;2024-02-23T01:26:14;6.10;99.90
17992;DHT22;9121;50.926;5.340;2024-02-23T01:28:41;6.10;99.90
17992;DHT22;9121;50.926;5.340;2024-02-23T01:31:09;6.10;99.90
17992;DHT22;9121;50.926;5.340;2024-02-23T01:33:39;6.10;99.90
17992;DHT22;9121;50.926;5.340;2024-02-23T01:36:06;6.20;99.90
17992;DHT22;9121;50.926;5.340;2024-02-23T01:38:33;6.20;99.90
17992;DHT22;9121;50.926;5.340;2024-02-23T01:41:02;6.20;99.90
17992;DHT22;9121;50.926;5.340;2024-02-23T01:43:29;6.20;99.90
17992;DHT22;9121;50.926;5.340;2024-02-23T01:45:56;6.30;99.90
17992;DHT22;9121;50.926;5.340;2024-02-23T01:48:23;6.30;99.90
17992;DHT22;9121;50.926;5.340;2024-02-23T01:50:52;6.30;99.90
17992;DHT22;9121;50.926;5.340;2024-02-23T01:53:20;6.20;99.90
17992;DHT22;9121;50.926;5.340;2024-02-23T01:55:47;6.10;99.90
17992;DHT22;9121;50.926;5.340;2024-02-23T01:58:15;6.10;99.90
17992;DHT22;9121;50.926;5.340;2024-02-23T02:00:42;6.10;99.90
17992;DHT22;9121;50.926;5.340;2024-02-23T02:03:09;6.10;99.90
17992;DHT22;9121;50.926;5.340;2024-02-23T02:05:36;6.10;99.90
17992;DHT22;9121;50.926;5.340;2024-02-23T02:08:05;6.20;99.90
17992;DHT22;9121;50.926;5.340;2024-02-23T02:10:32;6.30;99.90
17992;DHT22;9121;50.926;5.340;2024-02-23T02:13:02;6.20;99.90
17992;DHT22;9121;50.926;5.340;2024-02-23T02:15:30;6.30;99.90
17992;DHT22;9121;50.926;5.340;2024-02-23T02:17:57;6.30;99.90
17992;DHT22;9121;50.926;5.340;2024-02-23T02:20:24;6.40;99.90
17992;DHT22;9121;50.926;5.340;2024-02-23T02:22:52;6.40;99.90
17992;DHT22;9121;50.926;5.340;2024-02-23T02:25:20;6.50;99.90
17992;DHT22;9121;50.926;5.340;2024-02-23T02:27:47;6.40;99.90
17992;DHT22;9121;50.926;5.340;2024-02-23T02:30:14;6.40;99.90
17992;DHT22;9121;50.926;5.340;2024-02-23T02:32:41;6.40;99.90
17992;DHT22;9121;50.926;5.340;2024-02-23T02:35:10;6.40;99.90
17992;DHT22;9121;50.926;5.340;2024-02-23T02:37:38;6.40;99.90
17992;DHT22;9121;50.926;5.340;2024-02-23T02:40:06;6.40;99.90
17992;DHT22;9121;50.926;5.340;2024-02-23T02:42:35;6.40;99.90
17992;DHT22;9121;50.926;5.340;2024-02-23T02:45:02;6.30;99.90
17992;DHT22;9121;50.926;5.340;2024-02-23T02:47:29;6.20;99.90
17992;DHT22;9121;50.926;5.340;2024-02-23T02:49:56;6.20;99.90
17992;DHT22;9121;50.926;5.340;2024-02-23T02:52:23;6.20;99.90
17992;DHT22;9121;50.926;5.340;2024-02-23T02:54:50;6.20;99.90
17992;DHT22;9121;50.926;5.340;2024-02-23T02:57:17;6.20;99.90
17992;DHT22;9121;50.926;5.340;2024-02-23T02:59:45;6.20;99.90
17992;DHT22;9121;50.926;5.340;2024-02-23T03:02:12;6.20;99.90
17992;DHT22;9121;50.926;5.340;2024-02-23T03:04:46;6.20;99.90
17992;DHT22;9121;50.926;5.340;2024-02-23T03:07:13;6.10;99.90
17992;DHT22;9121;50.926;5.340;2024-02-23T03:09:39;6.10;99.90
17992;DHT22;9121;50.926;5.340;2024-02-23T03:12:07;6.20;99.90
17992;DHT22;9121;50.926;5.340;2024-02-23T03:14:34;6.10;99.90
17992;DHT22;9121;50.926;5.340;2024-02-23T03:17:04;6.20;99.90
17992;DHT22;9121;50.926;5.340;2024-02-23T03:19:31;6.20;99.90
17992;DHT22;9121;50.926;5.340;2024-02-23T03:21:58;6.20;99.90
17992;DHT22;9121;50.926;5.340;2024-02-23T03:24:25;6.20;99.90
17992;DHT22;9121;50.926;5.340;2024-02-23T03:26:52;6.30;99.90
17992;DHT22;9121;50.926;5.340;2024-02-23T03:29:19;6.30;99.90
17992;DHT22;9121;50.926;5.340;2024-02-23T03:31:46;6.40;99.90
17992;DHT22;9121;50.926;5.340;2024-02-23T03:34:14;6.40;99.90
17992;DHT22;9121;50.926;5.340;2024-02-23T03:36:41;6.40;99.90
17992;DHT22;9121;50.926;5.340;2024-02-23T03:39:08;6.40;99.90
17992;DHT22;9121;50.926;5.340;2024-02-23T03:41:35;6.50;99.90
17992;DHT22;9121;50.926;5.340;2024-02-23T03:44:02;6.50;99.90
17992;DHT22;9121;50.926;5.340;2024-02-23T03:46:28;6.40;99.90
17992;DHT22;9121;50.926;5.340;2024-02-23T03:48:56;6.50;99.90
17992;DHT22;9121;50.926;5.340;2024-02-23T03:51:24;6.50;99.90
17992;DHT22;9121;50.926;5.340;2024-02-23T03:53:51;6.40;99.90
17992;DHT22;9121;50.926;5.340;2024-02-23T03:56:18;6.40;99.90
17992;DHT22;9121;50.926;5.340;2024-02-23T03:58:46;6.30;99.90
17992;DHT22;9121;50.926;5.340;2024-02-23T04:01:12;6.30;99.90
17992;DHT22;9121;50.926;5.340;2024-02-23T04:03:39;6.30;99.90
17992;DHT22;9121;50.926;5.340;2024-02-23T04:06:07;6.40;99.90
17992;DHT22;9121;50.926;5.340;2024-02-23T04:08:35;6.40;99.90
17992;DHT22;9121;50.926;5.340;2024-02-23T04:11:03;6.40;99.90
17992;DHT22;9121;50.926;5.340;2024-02-23T04:13:30;6.50;99.90
17992;DHT22;9121;50.926;5.340;2024-02-23T04:15:57;6.60;99.90
17992;DHT22;9121;50.926;5.340;2024-02-23T04:18:24;6.60;99.90
17992;DHT22;9121;50.926;5.340;2024-02-23T04:20:51;6.60;99.90
17992;DHT22;9121;50.926;5.340;2024-02-23T04:23:18;6.70;99.90
17992;DHT22;9121;50.926;5.340;2024-02-23T04:25:46;6.70;99.90
17992;DHT22;9121;50.926;5.340;2024-02-23T04:28:13;6.70;99.90
17992;DHT22;9121;50.926;5.340;2024-02-23T04:30:40;6.70;99.90
17992;DHT22;9121;50.926;5.340;2024-02-23T04:33:09;6.70;99.90
17992;DHT22;9121;50.926;5.340;2024-02-23T04:35:36;6.70;99.90
17992;DHT22;9121;50.926;5.340;2024-02-23T04:38:03;6.70;99.90
17992;DHT22;9121;50.926;5.340;2024-02-23T04:40:30;6.70;99.90
17992;DHT22;9121;50.926;5.340;2024-02-23T04:42:59;6.70;99.90
17992;DHT22;9121;50.926;5.340;2024-02-23T04:45:26;6.70;99.90
17992;DHT22;9121;50.926;5.340;2024-02-23T04:47:52;6.70;99.90
17992;DHT22;9121;50.926;5.340;2024-02-23T04:50:19;6.70;99.90
17992;DHT22;9121;50.926;5.340;2024-02-23T04:52:46;6.80;99.90
17992;DHT22;9121;50.926;5.340;2024-02-23T04:55:13;6.70;99.90
17992;DHT22;9121;50.926;5.340;2024-02-23T04:57:40;6.80;99.90
17992;DHT22;9121;50.926;5.340;2024-02-23T05:00:10;6.80;99.90
17992;DHT22;9121;50.926;5.340;2024-02-23T05:02:37;6.80;99.90
17992;DHT22;9121;50.926;5.340;2024-02-23T05:05:04;6.80;99.90
17992;DHT22;9121;50.926;5.340;2024-02-23T05:07:31;6.80;99.90
17992;DHT22;9121;50.926;5.340;2024-02-23T05:09:58;6.80;99.90
17992;DHT22;9121;50.926;5.340;2024-02-23T05:12:25;6.80;99.90
17992;DHT22;9121;50.926;5.340;2024-02-23T05:14:52;6.80;99.90
17992;DHT22;9121;50.926;5.340;2024-02-23T05:17:21;6.80;99.90
17992;DHT22;9121;50.926;5.340;2024-02-23T05:19:48;6.80;99.90
17992;DHT22;9121;50.926;5.340;2024-02-23T05:22:15;6.80;99.90
17992;DHT22;9121;50.926;5.340;2024-02-23T05:24:42;6.90;99.90
17992;DHT22;9121;50.926;5.340;2024-02-23T05:27:10;6.80;99.90
17992;DHT22;9121;50.926;5.340;2024-02-23T05:29:37;6.80;99.90
17992;DHT22;9121;50.926;5.340;2024-02-23T05:32:04;6.80;99.90
17992;DHT22;9121;50.926;5.340;2024-02-23T05:34:33;6.80;99.90
17992;DHT22;9121;50.926;5.340;2024-02-23T05:37:00;6.80;99.90
17992;DHT22;9121;50.926;5.340;2024-02-23T05:39:27;6.80;99.90
17992;DHT22;9121;50.926;5.340;2024-02-23T05:41:54;6.80;99.90
17992;DHT22;9121;50.926;5.340;2024-02-23T05:44:22;6.80;99.90
17992;DHT22;9121;50.926;5.340;2024-02-23T05:46:49;6.80;99.90
17992;DHT22;9121;50.926;5.340;2024-02-23T05:49:16;6.80;99.90
17992;DHT22;9121;50.926;5.340;2024-02-23T05:51:45;6.80;99.90
17992;DHT22;9121;50.926;5.340;2024-02-23T05:54:12;6.70;99.90
17992;DHT22;9121;50.926;5.340;2024-02-23T05:56:39;6.80;99.90
17992;DHT22;9121;50.926;5.340;2024-02-23T05:59:06;6.80;99.90
17992;DHT22;9121;50.926;5.340;2024-02-23T06:01:34;6.80;99.90
17992;DHT22;9121;50.926;5.340;2024-02-23T06:04:01;6.80;99.90
17992;DHT22;9121;50.926;5.340;2024-02-23T06:06:28;6.80;99.90
17992;DHT22;9121;50.926;5.340;2024-02-23T06:08:58;6.70;99.90
17992;DHT22;9121;50.926;5.340;2024-02-23T06:11:25;6.70;99.90
17992;DHT22;9121;50.926;5.340;2024-02-23T06:13:52;6.80;99.90
17992;DHT22;9121;50.926;5.340;2024-02-23T06:16:19;6.70;99.90
17992;DHT22;9121;50.926;5.340;2024-02-23T06:18:46;6.70;99.90
17992;DHT22;9121;50.926;5.340;2024-02-23T06:21:16;6.70;99.90
17992;DHT22;9121;50.926;5.340;2024-02-23T06:23:44;6.70;99.90
17992;DHT22;9121;50.926;5.340;2024-02-23T06:26:12;6.70;99.90
17992;DHT22;9121;50.926;5.340;2024-02-23T06:28:40;6.70;99.90
17992;DHT22;9121;50.926;5.340;2024-02-23T06:31:08;6.70;99.90
17992;DHT22;9121;50.926;5.340;2024-02-23T06:33:35;6.70;99.90
17992;DHT22;9121;50.926;5.340;2024-02-23T06:36:02;6.60;99.90
17992;DHT22;9121;50.926;5.340;2024-02-23T06:38:30;6.70;99.90
17992;DHT22;9121;50.926;5.340;2024-02-23T06:40:57;6.70;99.90
17992;DHT22;9121;50.926;5.340;2024-02-23T06:43:25;6.70;99.90
17992;DHT22;9121;50.926;5.340;2024-02-23T06:45:52;6.70;99.90
17992;DHT22;9121;50.926;5.340;2024-02-23T06:48:19;6.70;99.90
17992;DHT22;9121;50.926;5.340;2024-02-23T06:50:46;6.60;99.90
17992;DHT22;9121;50.926;5.340;2024-02-23T06:53:14;6.70;99.90
17992;DHT22;9121;50.926;5.340;2024-02-23T06:55:41;6.70;99.90
17992;DHT22;9121;50.926;5.340;2024-02-23T06:58:08;6.70;99.90
17992;DHT22;9121;50.926;5.340;2024-02-23T07:00:37;6.60;99.90
17992;DHT22;9121;50.926;5.340;2024-02-23T07:03:04;6.60;99.90
17992;DHT22;9121;50.926;5.340;2024-02-23T07:05:31;6.70;99.90
17992;DHT22;9121;50.926;5.340;2024-02-23T07:07:58;6.70;99.90
17992;DHT22;9121;50.926;5.340;2024-02-23T07:10:26;6.70;99.90
17992;DHT22;9121;50.926;5.340;2024-02-23T07:12:53;6.60;99.90
17992;DHT22;9121;50.926;5.340;2024-02-23T07:15:22;6.60;99.90
17992;DHT22;9121;50.926;5.340;2024-02-23T07:17:51;6.60;99.90
17992;DHT22;9121;50.926;5.340;2024-02-23T07:20:18;6.60;99.90
17992;DHT22;9121;50.926;5.340;2024-02-23T07:22:45;6.60;99.90
17992;DHT22;9121;50.926;5.340;2024-02-23T07:25:16;6.60;99.90
17992;DHT22;9121;50.926;5.340;2024-02-23T07:27:43;6.60;99.90
17992;DHT22;9121;50.926;5.340;2024-02-23T07:30:11;6.60;99.90
17992;DHT22;9121;50.926;5.340;2024-02-23T07:32:38;6.60;99.90
17992;DHT22;9121;50.926;5.340;2024-02-23T07:35:07;6.60;99.90
17992;DHT22;9121;50.926;5.340;2024-02-23T07:37:34;6.60;99.90
17992;DHT22;9121;50.926;5.340;2024-02-23T07:40:01;6.70;99.90
17992;DHT22;9121;50.926;5.340;2024-02-23T07:42:29;6.70;99.90
17992;DHT22;9121;50.926;5.340;2024-02-23T07:44:56;6.80;99.90
17992;DHT22;9121;50.926;5.340;2024-02-23T07:47:24;6.80;99.90
17992;DHT22;9121;50.926;5.340;2024-02-23T07:49:52;6.90;99.90
17992;DHT22;9121;50.926;5.340;2024-02-23T07:52:21;7.00;99.90
17992;DHT22;9121;50.926;5.340;2024-02-23T07:54:49;7.00;99.90
17992;DHT22;9121;50.926;5.340;2024-02-23T07:57:17;7.00;99.90
17992;DHT22;9121;50.926;5.340;2024-02-23T07:59:44;7.10;99.90
17992;DHT22;9121;50.926;5.340;2024-02-23T08:02:11;7.10;99.90
17992;DHT22;9121;50.926;5.340;2024-02-23T08:04:38;7.10;99.90
17992;DHT22;9121;50.926;5.340;2024-02-23T08:07:05;7.10;99.90
17992;DHT22;9121;50.926;5.340;2024-02-23T08:09:33;7.10;99.90
17992;DHT22;9121;50.926;5.340;2024-02-23T08:12:00;7.10;99.90
17992;DHT22;9121;50.926;5.340;2024-02-23T08:14:27;7.10;99.90
17992;DHT22;9121;50.926;5.340;2024-02-23T08:16:54;7.10;99.90
17992;DHT22;9121;50.926;5.340;2024-02-23T08:19:21;7.10;99.90
17992;DHT22;9121;50.926;5.340;2024-02-23T08:21:48;7.20;99.90
17992;DHT22;9121;50.926;5.340;2024-02-23T08:24:14;7.20;99.90
17992;DHT22;9121;50.926;5.340;2024-02-23T08:26:43;7.30;99.90
17992;DHT22;9121;50.926;5.340;2024-02-23T08:29:10;7.30;99.90
17992;DHT22;9121;50.926;5.340;2024-02-23T08:31:37;7.30;99.90
17992;DHT22;9121;50.926;5.340;2024-02-23T08:34:04;7.40;99.90
17992;DHT22;9121;50.926;5.340;2024-02-23T08:36:31;7.40;99.90
17992;DHT22;9121;50.926;5.340;2024-02-23T08:38:58;7.50;99.90
17992;DHT22;9121;50.926;5.340;2024-02-23T08:41:24;7.50;99.90
17992;DHT22;9121;50.926;5.340;2024-02-23T08:43:53;7.50;99.90
17992;DHT22;9121;50.926;5.340;2024-02-23T08:46:21;7.50;99.90
17992;DHT22;9121;50.926;5.340;2024-02-23T08:48:48;7.50;99.90
17992;DHT22;9121;50.926;5.340;2024-02-23T08:51:15;7.60;99.90
17992;DHT22;9121;50.926;5.340;2024-02-23T08:53:42;7.70;99.90
17992;DHT22;9121;50.926;5.340;2024-02-23T08:56:09;7.60;99.90
17992;DHT22;9121;50.926;5.340;2024-02-23T08:58:36;7.60;99.90
17992;DHT22;9121;50.926;5.340;2024-02-23T09:01:05;7.60;99.90
17992;DHT22;9121;50.926;5.340;2024-02-23T09:03:32;7.60;99.90
17992;DHT22;9121;50.926;5.340;2024-02-23T09:05:59;7.60;99.90
17992;DHT22;9121;50.926;5.340;2024-02-23T09:08:26;7.60;99.90
17992;DHT22;9121;50.926;5.340;2024-02-23T09:10:53;7.60;99.90
17992;DHT22;9121;50.926;5.340;2024-02-23T09:13:20;7.70;99.90
17992;DHT22;9121;50.926;5.340;2024-02-23T09:15:47;7.70;99.90
17992;DHT22;9121;50.926;5.340;2024-02-23T09:18:15;7.80;99.90
17992;DHT22;9121;50.926;5.340;2024-02-23T09:20:42;7.90;99.90
17992;DHT22;9121;50.926;5.340;2024-02-23T09:23:09;8.10;99.90
17992;DHT22;9121;50.926;5.340;2024-02-23T09:25:37;8.20;99.90
17992;DHT22;9121;50.926;5.340;2024-02-23T09:28:05;8.30;99.90
17992;DHT22;9121;50.926;5.340;2024-02-23T09:30:32;8.40;99.90
17992;DHT22;9121;50.926;5.340;2024-02-23T09:32:58;8.40;99.90
17992;DHT22;9121;50.926;5.340;2024-02-23T09:35:27;8.40;99.90
17992;DHT22;9121;50.926;5.340;2024-02-23T09:37:54;8.40;99.90
17992;DHT22;9121;50.926;5.340;2024-02-23T09:40:21;8.40;99.90
17992;DHT22;9121;50.926;5.340;2024-02-23T09:42:54;8.30;99.90
17992;DHT22;9121;50.926;5.340;2024-02-23T09:45:22;8.30;99.90
17992;DHT22;9121;50.926;5.340;2024-02-23T09:47:49;8.40;99.90
17992;DHT22;9121;50.926;5.340;2024-02-23T09:50:17;8.40;99.90
17992;DHT22;9121;50.926;5.340;2024-02-23T09:52:48;8.40;99.90
17992;DHT22;9121;50.926;5.340;2024-02-23T09:55:16;8.30;99.90
17992;DHT22;9121;50.926;5.340;2024-02-23T09:57:44;8.30;99.90
17992;DHT22;9121;50.926;5.340;2024-02-23T10:00:13;8.30;99.90
17992;DHT22;9121;50.926;5.340;2024-02-23T10:02:43;8.40;99.90
17992;DHT22;9121;50.926;5.340;2024-02-23T10:05:10;8.40;99.90
17992;DHT22;9121;50.926;5.340;2024-02-23T10:07:38;8.50;99.90
17992;DHT22;9121;50.926;5.340;2024-02-23T10:10:08;8.50;99.90
17992;DHT22;9121;50.926;5.340;2024-02-23T10:12:36;8.50;99.90
17992;DHT22;9121;50.926;5.340;2024-02-23T10:15:04;8.50;99.90
17992;DHT22;9121;50.926;5.340;2024-02-23T10:17:31;8.60;99.90
17992;DHT22;9121;50.926;5.340;2024-02-23T10:19:59;8.60;99.90
17992;DHT22;9121;50.926;5.340;2024-02-23T10:22:30;8.40;99.90
17992;DHT22;9121;50.926;5.340;2024-02-23T10:24:57;8.30;99.90
17992;DHT22;9121;50.926;5.340;2024-02-23T10:27:26;8.40;99.90
17992;DHT22;9121;50.926;5.340;2024-02-23T10:29:53;8.40;99.90
17992;DHT22;9121;50.926;5.340;2024-02-23T10:32:20;8.30;99.90
17992;DHT22;9121;50.926;5.340;2024-02-23T10:34:48;8.30;99.90
17992;DHT22;9121;50.926;5.340;2024-02-23T10:37:16;8.30;99.90
17992;DHT22;9121;50.926;5.340;2024-02-23T10:39:43;8.30;99.90
17992;DHT22;9121;50.926;5.340;2024-02-23T10:42:12;8.50;99.90
17992;DHT22;9121;50.926;5.340;2024-02-23T10:44:44;8.70;99.90
17992;DHT22;9121;50.926;5.340;2024-02-23T10:47:11;8.90;99.90
17992;DHT22;9121;50.926;5.340;2024-02-23T10:49:38;8.90;99.90
17992;DHT22;9121;50.926;5.340;2024-02-23T10:52:07;8.90;99.90
17992;DHT22;9121;50.926;5.340;2024-02-23T10:54:38;9.20;99.90
17992;DHT22;9121;50.926;5.340;2024-02-23T10:57:06;9.10;99.90
17992;DHT22;9121;50.926;5.340;2024-02-23T10:59:34;9.10;99.90
17992;DHT22;9121;50.926;5.340;2024-02-23T11:02:03;9.10;99.90
17992;DHT22;9121;50.926;5.340;2024-02-23T11:04:31;9.10;99.90
17992;DHT22;9121;50.926;5.340;2024-02-23T11:06:59;9.10;99.90
17992;DHT22;9121;50.926;5.340;2024-02-23T11:09:31;9.10;99.90
17992;DHT22;9121;50.926;5.340;2024-02-23T11:12:03;9.10;99.90
17992;DHT22;9121;50.926;5.340;2024-02-23T11:14:31;9.10;99.90
17992;DHT22;9121;50.926;5.340;2024-02-23T11:16:59;9.20;99.90
17992;DHT22;9121;50.926;5.340;2024-02-23T11:19:34;9.30;99.90
17992;DHT22;9121;50.926;5.340;2024-02-23T11:22:02;9.30;99.90
17992;DHT22;9121;50.926;5.340;2024-02-23T11:24:29;9.30;99.90
17992;DHT22;9121;50.926;5.340;2024-02-23T11:26:57;9.10;99.90
17992;DHT22;9121;50.926;5.340;2024-02-23T11:29:29;8.90;99.90
17992;DHT22;9121;50.926;5.340;2024-02-23T11:31:58;9.00;99.90
17992;DHT22;9121;50.926;5.340;2024-02-23T11:34:30;8.90;99.90
17992;DHT22;9121;50.926;5.340;2024-02-23T11:37:09;8.80;99.90
17992;DHT22;9121;50.926;5.340;2024-02-23T11:39:37;8.80;99.90
17992;DHT22;9121;50.926;5.340;2024-02-23T11:42:06;8.90;99.90
17992;DHT22;9121;50.926;5.340;2024-02-23T11:44:34;9.00;99.90
17992;DHT22;9121;50.926;5.340;2024-02-23T11:47:00;9.00;99.90
17992;DHT22;9121;50.926;5.340;2024-02-23T11:49:28;9.00;99.90
17992;DHT22;9121;50.926;5.340;2024-02-23T11:51:57;9.10;99.90
17992;DHT22;9121;50.926;5.340;2024-02-23T11:54:24;9.10;99.90
17992;DHT22;9121;50.926;5.340;2024-02-23T11:56:51;9.00;99.90
17992;DHT22;9121;50.926;5.340;2024-02-23T11:59:19;9.00;99.90
17992;DHT22;9121;50.926;5.340;2024-02-23T12:01:46;9.00;99.90
17992;DHT22;9121;50.926;5.340;2024-02-23T12:04:14;9.00;99.90
17992;DHT22;9121;50.926;5.340;2024-02-23T12:06:42;9.00;99.90
17992;DHT22;9121;50.926;5.340;2024-02-23T12:09:12;9.00;99.90
17992;DHT22;9121;50.926;5.340;2024-02-23T12:11:40;9.00;99.90
17992;DHT22;9121;50.926;5.340;2024-02-23T12:14:08;8.90;99.90
17992;DHT22;9121;50.926;5.340;2024-02-23T12:16:35;8.90;99.90
17992;DHT22;9121;50.926;5.340;2024-02-23T12:19:02;8.90;99.90
17992;DHT22;9121;50.926;5.340;2024-02-23T12:21:29;8.90;99.90
17992;DHT22;9121;50.926;5.340;2024-02-23T12:23:56;8.90;99.90
17992;DHT22;9121;50.926;5.340;2024-02-23T12:26:24;9.00;99.90
17992;DHT22;9121;50.926;5.340;2024-02-23T12:28:51;9.00;99.90
17992;DHT22;9121;50.926;5.340;2024-02-23T12:31:24;9.00;99.90
17992;DHT22;9121;50.926;5.340;2024-02-23T12:33:52;9.10;99.90
17992;DHT22;9121;50.926;5.340;2024-02-23T12:36:19;9.20;99.90
17992;DHT22;9121;50.926;5.340;2024-02-23T12:38:46;9.20;99.90
17992;DHT22;9121;50.926;5.340;2024-02-23T12:41:13;9.30;99.90
17992;DHT22;9121;50.926;5.340;2024-02-23T12:43:41;9.40;99.90
17992;DHT22;9121;50.926;5.340;2024-02-23T12:46:08;9.50;99.90
17992;DHT22;9121;50.926;5.340;2024-02-23T12:48:38;9.60;99.90
17992;DHT22;9121;50.926;5.340;2024-02-23T12:51:05;9.70;99.90
17992;DHT22;9121;50.926;5.340;2024-02-23T12:53:33;9.50;99.90
17992;DHT22;9121;50.926;5.340;2024-02-23T12:56:02;9.50;99.90
17992;DHT22;9121;50.926;5.340;2024-02-23T12:58:29;9.60;99.90
17992;DHT22;9121;50.926;5.340;2024-02-23T13:00:58;9.60;99.90
17992;DHT22;9121;50.926;5.340;2024-02-23T13:03:26;9.60;99.90
17992;DHT22;9121;50.926;5.340;2024-02-23T13:05:53;9.70;99.90
17992;DHT22;9121;50.926;5.340;2024-02-23T13:08:21;9.70;99.90
17992;DHT22;9121;50.926;5.340;2024-02-23T13:10:48;9.70;99.90
17992;DHT22;9121;50.926;5.340;2024-02-23T13:13:15;10.00;99.90
17992;DHT22;9121;50.926;5.340;2024-02-23T13:15:43;10.20;99.90
17992;DHT22;9121;50.926;5.340;2024-02-23T13:18:11;10.00;99.90
17992;DHT22;9121;50.926;5.340;2024-02-23T13:20:39;9.90;99.90
17992;DHT22;9121;50.926;5.340;2024-02-23T13:23:07;9.80;99.90
17992;DHT22;9121;50.926;5.340;2024-02-23T13:25:35;9.70;99.90
17992;DHT22;9121;50.926;5.340;2024-02-23T13:28:03;9.80;99.90
17992;DHT22;9121;50.926;5.340;2024-02-23T13:30:30;10.00;99.90
17992;DHT22;9121;50.926;5.340;2024-02-23T13:32:57;9.90;99.90
17992;DHT22;9121;50.926;5.340;2024-02-23T13:35:25;9.90;99.90
17992;DHT22;9121;50.926;5.340;2024-02-23T13:37:53;9.90;99.90
17992;DHT22;9121;50.926;5.340;2024-02-23T13:40:20;9.80;99.90
17992;DHT22;9121;50.926;5.340;2024-02-23T13:42:47;9.90;99.90
17992;DHT22;9121;50.926;5.340;2024-02-23T13:45:16;9.90;99.90
17992;DHT22;9121;50.926;5.340;2024-02-23T13:47:54;9.80;99.90
17992;DHT22;9121;50.926;5.340;2024-02-23T13:50:22;9.80;99.90
17992;DHT22;9121;50.926;5.340;2024-02-23T13:52:50;9.90;99.90
17992;DHT22;9121;50.926;5.340;2024-02-23T13:55:17;9.90;99.90
17992;DHT22;9121;50.926;5.340;2024-02-23T13:57:46;9.80;99.90
17992;DHT22;9121;50.926;5.340;2024-02-23T14:00:14;9.80;99.90
17992;DHT22;9121;50.926;5.340;2024-02-23T14:02:41;9.80;99.90
17992;DHT22;9121;50.926;5.340;2024-02-23T14:05:08;9.80;99.90
17992;DHT22;9121;50.926;5.340;2024-02-23T14:07:35;9.80;99.90
17992;DHT22;9121;50.926;5.340;2024-02-23T14:10:04;9.80;99.90
17992;DHT22;9121;50.926;5.340;2024-02-23T14:12:32;9.80;99.90
17992;DHT22;9121;50.926;5.340;2024-02-23T14:14:59;9.80;99.90
17992;DHT22;9121;50.926;5.340;2024-02-23T14:17:26;9.80;99.90
17992;DHT22;9121;50.926;5.340;2024-02-23T14:19:53;9.80;99.90
17992;DHT22;9121;50.926;5.340;2024-02-23T14:22:20;9.60;99.90
17992;DHT22;9121;50.926;5.340;2024-02-23T14:24:47;9.50;99.90
17992;DHT22;9121;50.926;5.340;2024-02-23T14:27:15;9.50;99.90
17992;DHT22;9121;50.926;5.340;2024-02-23T14:29:43;9.60;99.90
17992;DHT22;9121;50.926;5.340;2024-02-23T14:32:09;9.60;99.90
17992;DHT22;9121;50.926;5.340;2024-02-23T14:34:37;9.60;99.90
17992;DHT22;9121;50.926;5.340;2024-02-23T14:37:04;9.50;99.90
17992;DHT22;9121;50.926;5.340;2024-02-23T14:39:31;9.40;99.90
17992;DHT22;9121;50.926;5.340;2024-02-23T14:42:00;9.40;99.90
17992;DHT22;9121;50.926;5.340;2024-02-23T14:44:28;9.50;99.90
17992;DHT22;9121;50.926;5.340;2024-02-23T14:46:55;9.50;99.90
17992;DHT22;9121;50.926;5.340;2024-02-23T14:49:22;9.60;99.90
17992;DHT22;9121;50.926;5.340;2024-02-23T14:51:49;9.70;99.90
17992;DHT22;9121;50.926;5.340;2024-02-23T14:54:16;9.60;99.90
17992;DHT22;9121;50.926;5.340;2024-02-23T14:56:44;9.50;99.90
17992;DHT22;9121;50.926;5.340;2024-02-23T14:59:12;9.60;99.90
17992;DHT22;9121;50.926;5.340;2024-02-23T15:01:41;9.60;99.90
17992;DHT22;9121;50.926;5.340;2024-02-23T15:04:08;9.50;99.90
17992;DHT22;9121;50.926;5.340;2024-02-23T15:06:35;9.50;99.90
17992;DHT22;9121;50.926;5.340;2024-02-23T15:09:03;9.60;99.90
17992;DHT22;9121;50.926;5.340;2024-02-23T15:11:30;9.60;99.90
17992;DHT22;9121;50.926;5.340;2024-02-23T15:13:57;9.50;99.90
17992;DHT22;9121;50.926;5.340;2024-02-23T15:16:27;9.60;99.90
17992;DHT22;9121;50.926;5.340;2024-02-23T15:18:57;9.70;99.90
17992;DHT22;9121;50.926;5.340;2024-02-23T15:21:25;9.80;99.90
17992;DHT22;9121;50.926;5.340;2024-02-23T15:23:52;9.90;99.90
17992;DHT22;9121;50.926;5.340;2024-02-23T15:26:19;9.90;99.90
17992;DHT22;9121;50.926;5.340;2024-02-23T15:28:46;9.90;99.90
17992;DHT22;9121;50.926;5.340;2024-02-23T15:31:13;9.80;99.90
17992;DHT22;9121;50.926;5.340;2024-02-23T15:33:40;9.80;99.90
17992;DHT22;9121;50.926;5.340;2024-02-23T15:36:08;9.90;99.90
17992;DHT22;9121;50.926;5.340;2024-02-23T15:38:35;9.80;99.90
17992;DHT22;9121;50.926;5.340;2024-02-23T15:41:03;9.80;99.90
17992;DHT22;9121;50.926;5.340;2024-02-23T15:43:30;9.80;99.90
17992;DHT22;9121;50.926;5.340;2024-02-23T15:45:57;9.90;99.90
17992;DHT22;9121;50.926;5.340;2024-02-23T15:48:24;9.90;99.90
17992;DHT22;9121;50.926;5.340;2024-02-23T15:50:51;9.90;99.90
17992;DHT22;9121;50.926;5.340;2024-02-23T15:53:20;9.90;99.90
17992;DHT22;9121;50.926;5.340;2024-02-23T15:55:48;9.90;99.90
17992;DHT22;9121;50.926;5.340;2024-02-23T15:58:14;9.80;99.90
17992;DHT22;9121;50.926;5.340;2024-02-23T16:00:45;9.80;99.90
17992;DHT22;9121;50.926;5.340;2024-02-23T16:03:12;9.80;99.90